createdAt,value
2023-02-14T00:01:19.655Z,15.30
2023-02-14T00:04:06.852Z,15.45
2023-02-14T00:06:48.762Z,16.25
2023-02-14T00:09:37.682Z,17.15
2023-02-14T00:12:21.867Z,16.23
2023-02-14T00:15:11.388Z,17.52
2023-02-14T00:17:45.885Z,18.38
2023-02-14T00:20:18.096Z,17.02
2023-02-14T00:22:55.947Z,17.65
2023-02-14T00:25:55.591Z,18.17
2023-02-14T00:28:33.800Z,17.95
2023-02-14T00:31:05.215Z,17.83
2023-02-14T00:33:41.528Z,18.33
2023-02-14T00:36:24.688Z,17.27
2023-02-14T00:41:36.074Z,19.42
2023-02-14T00:44:23.082Z,18.65
2023-02-14T00:46:55.276Z,18.08
2023-02-14T00:49:25.736Z,18.35
2023-02-14T00:51:55.748Z,18.08
2023-02-14T00:54:28.149Z,18.58
2023-02-14T00:56:59.862Z,17.77
2023-02-14T00:59:30.171Z,17.38
2023-02-14T01:01:58.932Z,18.00
2023-02-14T01:04:27.662Z,18.02
2023-02-14T01:06:58.720Z,16.63
2023-02-14T01:09:32.852Z,18.60
2023-02-14T01:12:05.906Z,18.27
2023-02-14T01:14:35.698Z,18.65
2023-02-14T01:17:04.765Z,16.98
2023-02-14T01:19:33.332Z,18.02
2023-02-14T01:24:48.939Z,19.17
2023-02-14T01:30:08.612Z,19.98
2023-02-14T01:38:11.026Z,21.25
2023-02-14T01:40:44.744Z,19.95
2023-02-14T01:43:20.723Z,20.55
2023-02-14T01:45:52.810Z,20.58
2023-02-14T01:48:23.878Z,22.13
2023-02-14T01:50:55.952Z,19.70
2023-02-14T01:53:29.059Z,21.45
2023-02-14T01:56:06.394Z,20.10
2023-02-14T01:58:45.460Z,20.52
2023-02-14T02:01:34.621Z,22.52
2023-02-14T02:04:14.140Z,21.45
2023-02-14T02:06:48.460Z,20.60
2023-02-14T02:09:27.568Z,22.15
2023-02-14T02:11:57.965Z,20.52
2023-02-14T02:14:31.645Z,20.98
2023-02-14T02:17:28.653Z,20.90
2023-02-14T02:20:47.711Z,20.38
2023-02-14T02:23:49.859Z,22.10
2023-02-14T02:27:16.446Z,21.10
2023-02-14T02:30:38.772Z,21.08
2023-02-14T02:33:42.070Z,22.65
2023-02-14T02:36:40.479Z,19.60
2023-02-14T02:39:26.920Z,23.15
2023-02-14T02:42:11.355Z,23.40
2023-02-14T02:44:50.732Z,22.63
2023-02-14T02:47:27.728Z,23.40
2023-02-14T02:50:17.632Z,25.58
2023-02-14T02:53:06.433Z,25.08
2023-02-14T02:56:02.892Z,25.50
2023-02-14T02:58:35.445Z,24.05
2023-02-14T03:01:12.918Z,26.55
2023-02-14T03:04:01.809Z,26.05
2023-02-14T03:06:34.742Z,24.75
2023-02-14T03:11:56.894Z,25.40
2023-02-14T03:14:37.960Z,24.52
2023-02-14T03:17:18.481Z,24.33
2023-02-14T03:20:15.739Z,25.63
2023-02-14T03:22:56.200Z,24.30
2023-02-14T03:25:42.032Z,26.10
2023-02-14T03:28:19.087Z,25.73
2023-02-14T03:31:01.228Z,24.15
2023-02-14T03:33:34.606Z,26.63
2023-02-14T03:36:10.921Z,24.63
2023-02-14T03:38:48.169Z,23.70
2023-02-14T03:41:22.456Z,26.70
2023-02-14T03:43:54.788Z,25.55
2023-02-14T03:46:27.602Z,24.77
2023-02-14T03:49:02.342Z,25.05
2023-02-14T03:51:37.127Z,23.90
2023-02-14T03:54:08.930Z,24.33
2023-02-14T03:56:44.893Z,24.77
2023-02-14T03:59:19.436Z,24.05
2023-02-14T04:01:52.858Z,24.05
2023-02-14T04:04:25.318Z,24.27
2023-02-14T04:06:57.206Z,25.20
2023-02-14T04:09:26.448Z,23.85
2023-02-14T04:11:55.848Z,25.63
2023-02-14T04:14:25.611Z,24.45
2023-02-14T04:17:12.233Z,23.77
2023-02-14T04:19:40.737Z,24.85
2023-02-14T04:22:13.531Z,23.70
2023-02-14T04:24:43.712Z,25.13
2023-02-14T04:27:15.879Z,24.95
2023-02-14T04:29:59.746Z,24.00
2023-02-14T04:32:29.140Z,24.92
2023-02-14T04:34:59.260Z,24.75
2023-02-14T04:37:30.992Z,24.65
2023-02-14T04:39:59.640Z,25.60
2023-02-14T04:42:34.226Z,24.60
2023-02-14T04:45:05.369Z,24.08
2023-02-14T04:47:39.633Z,24.95
2023-02-14T04:50:15.714Z,23.60
2023-02-14T04:52:46.173Z,22.63
2023-02-14T04:55:17.344Z,22.75
2023-02-14T04:57:49.085Z,24.55
2023-02-14T05:00:26.421Z,22.33
2023-02-14T05:02:58.303Z,23.05
2023-02-14T05:05:31.343Z,22.83
2023-02-14T05:10:31.629Z,23.30
2023-02-14T05:13:04.432Z,22.23
2023-02-14T05:15:38.470Z,22.13
2023-02-14T05:18:14.482Z,22.40
2023-02-14T05:20:46.546Z,22.27
2023-02-14T05:23:17.397Z,21.47
2023-02-14T05:25:55.132Z,20.83
2023-02-14T05:28:28.316Z,21.55
2023-02-14T05:31:08.055Z,22.23
2023-02-14T05:33:38.094Z,21.67
2023-02-14T05:36:09.793Z,22.52
2023-02-14T05:38:40.451Z,20.95
2023-02-14T05:41:11.250Z,22.55
2023-02-14T05:43:44.264Z,21.83
2023-02-14T05:48:42.418Z,21.63
2023-02-14T05:51:12.624Z,20.05
2023-02-14T05:53:54.348Z,22.85
2023-02-14T05:56:22.687Z,21.23
2023-02-14T05:58:56.319Z,21.65
2023-02-14T06:01:26.862Z,21.27
2023-02-14T06:03:55.494Z,21.17
2023-02-14T06:06:24.190Z,21.92
2023-02-14T06:08:53.182Z,21.33
2023-02-14T06:11:22.740Z,22.02
2023-02-14T06:13:55.599Z,22.35
2023-02-14T06:16:26.644Z,21.90
2023-02-14T06:19:03.515Z,22.65
2023-02-14T06:21:32.151Z,21.30
2023-02-14T06:24:01.398Z,20.33
2023-02-14T06:26:33.325Z,21.38
2023-02-14T06:29:08.550Z,22.00
2023-02-14T06:31:37.878Z,20.90
2023-02-14T06:34:07.062Z,21.20
2023-02-14T06:36:38.156Z,23.02
2023-02-14T06:39:10.272Z,23.08
2023-02-14T06:41:38.680Z,24.00
2023-02-14T06:44:10.420Z,24.52
2023-02-14T06:46:39.084Z,23.53
2023-02-14T06:49:14.669Z,22.90
2023-02-14T06:51:47.171Z,21.40
2023-02-14T06:54:17.734Z,21.30
2023-02-14T06:56:45.834Z,21.67
2023-02-14T06:59:17.258Z,20.45
2023-02-14T07:01:47.263Z,23.23
2023-02-14T07:04:16.412Z,22.13
2023-02-14T07:06:47.908Z,23.15
2023-02-14T07:09:20.662Z,21.85
2023-02-14T07:11:50.754Z,20.77
2023-02-14T07:14:23.768Z,21.95
2023-02-14T07:19:25.684Z,21.08
2023-02-14T07:21:55.864Z,21.33
2023-02-14T07:24:26.333Z,20.17
2023-02-14T07:26:58.128Z,22.15
2023-02-14T07:29:27.937Z,22.70
2023-02-14T07:31:59.966Z,21.38
2023-02-14T07:34:28.823Z,20.95
2023-02-14T07:36:57.198Z,19.95
2023-02-14T07:39:25.858Z,21.85
2023-02-14T07:41:54.293Z,21.40
2023-02-14T07:44:23.077Z,20.63
2023-02-14T07:46:53.840Z,21.58
2023-02-14T07:49:24.415Z,22.33
2023-02-14T07:51:56.632Z,21.88
2023-02-14T07:54:27.618Z,19.83
2023-02-14T07:56:58.236Z,21.25
2023-02-14T07:59:27.198Z,21.75
2023-02-14T08:01:59.431Z,20.52
2023-02-14T08:04:29.333Z,21.85
2023-02-14T08:06:57.724Z,21.65
2023-02-14T08:09:28.208Z,19.50
2023-02-14T08:12:16.834Z,20.80
2023-02-14T08:14:46.222Z,21.10
2023-02-14T08:17:18.035Z,21.67
2023-02-14T08:19:47.247Z,19.80
2023-02-14T08:22:18.297Z,19.50
2023-02-14T08:24:47.330Z,21.15
2023-02-14T08:27:19.244Z,20.13
2023-02-14T08:29:50.297Z,19.85
2023-02-14T08:32:21.227Z,21.08
2023-02-14T08:34:53.288Z,20.33
2023-02-14T08:37:21.889Z,20.33
2023-02-14T08:39:51.462Z,21.05
2023-02-14T08:42:21.026Z,20.40
2023-02-14T08:44:51.819Z,20.92
2023-02-14T08:47:25.852Z,21.70
2023-02-14T08:49:54.769Z,20.50
2023-02-14T08:52:25.842Z,19.25
2023-02-14T08:54:54.562Z,20.77
2023-02-14T08:57:27.331Z,21.50
2023-02-14T08:59:55.962Z,21.95
2023-02-14T09:02:30.322Z,20.98
2023-02-14T09:05:00.815Z,21.27
2023-02-14T09:07:29.627Z,19.15
2023-02-14T09:09:58.184Z,21.20
2023-02-14T09:12:29.690Z,19.58
2023-02-14T09:14:58.972Z,20.38
2023-02-14T09:17:32.091Z,20.05
2023-02-14T09:20:01.088Z,21.25
2023-02-14T09:22:32.430Z,20.27
2023-02-14T09:25:00.978Z,21.00
2023-02-14T09:27:32.739Z,21.50
2023-02-14T09:30:08.601Z,20.55
2023-02-14T09:32:39.351Z,21.48
2023-02-14T09:35:26.515Z,22.38
2023-02-14T09:38:12.268Z,20.77
2023-02-14T09:40:43.846Z,21.10
2023-02-14T09:43:26.323Z,19.35
2023-02-14T09:46:00.788Z,22.15
2023-02-14T09:48:37.505Z,20.48
2023-02-14T09:51:10.612Z,20.55
2023-02-14T09:53:45.215Z,21.33
2023-02-14T09:56:22.313Z,20.75
2023-02-14T09:59:01.873Z,22.13
2023-02-14T10:01:42.113Z,20.92
2023-02-14T10:04:23.533Z,21.00
2023-02-14T10:06:58.303Z,21.52
2023-02-14T10:09:45.982Z,21.55
2023-02-14T10:12:21.756Z,20.15
2023-02-14T10:14:50.736Z,21.10
2023-02-14T10:17:24.568Z,20.55
2023-02-14T10:19:59.687Z,21.23
2023-02-14T10:22:40.023Z,20.77
2023-02-14T10:25:21.370Z,21.17
2023-02-14T10:27:50.731Z,19.60
2023-02-14T10:30:21.657Z,20.20
2023-02-14T10:32:54.705Z,21.92
2023-02-14T10:38:12.197Z,20.55
2023-02-14T10:41:06.168Z,22.05
2023-02-14T10:43:41.516Z,20.95
2023-02-14T10:46:18.271Z,20.48
2023-02-14T10:48:53.837Z,20.88
2023-02-14T10:51:33.365Z,21.17
2023-02-14T10:54:17.613Z,21.58
2023-02-14T10:56:53.196Z,19.42
2023-02-14T10:59:31.914Z,20.45
2023-02-14T11:02:01.793Z,20.30
2023-02-14T11:04:34.896Z,20.13
2023-02-14T11:07:07.655Z,20.73
2023-02-14T11:09:38.084Z,20.35
2023-02-14T11:12:08.577Z,20.05
2023-02-14T11:14:39.201Z,21.85
2023-02-14T11:17:29.190Z,19.27
2023-02-14T11:20:04.826Z,20.35
2023-02-14T11:22:36.662Z,20.00
2023-02-14T11:25:08.919Z,22.50
2023-02-14T11:27:38.197Z,19.38
2023-02-14T11:30:20.128Z,21.10
2023-02-14T11:32:56.413Z,19.67
2023-02-14T11:35:35.552Z,21.35
2023-02-14T11:38:07.040Z,20.38
2023-02-14T11:40:38.459Z,19.02
2023-02-14T11:43:21.451Z,22.23
2023-02-14T11:45:52.374Z,21.13
2023-02-14T11:48:41.991Z,20.65
2023-02-14T11:51:15.730Z,21.65
2023-02-14T11:53:50.339Z,21.15
2023-02-14T11:56:21.947Z,21.52
2023-02-14T11:58:58.632Z,20.65
2023-02-14T12:01:33.113Z,20.88
2023-02-14T12:04:04.645Z,20.15
2023-02-14T12:06:37.232Z,20.38
2023-02-14T12:09:36.209Z,21.13
2023-02-14T12:12:23.661Z,20.30
2023-02-14T12:15:06.119Z,21.05
2023-02-14T12:17:49.380Z,21.23
2023-02-14T12:23:10.155Z,20.85
2023-02-14T12:25:58.508Z,19.33
2023-02-14T12:28:40.656Z,20.20
2023-02-14T12:31:18.431Z,20.80
2023-02-14T12:33:50.518Z,20.23
2023-02-14T12:36:36.224Z,20.77
2023-02-14T12:39:12.731Z,21.30
2023-02-14T12:41:54.607Z,20.80
2023-02-14T12:44:36.047Z,21.48
2023-02-14T12:47:16.500Z,20.55
2023-02-14T12:50:04.837Z,21.00
2023-02-14T12:53:03.521Z,20.13
2023-02-14T12:55:44.021Z,19.92
2023-02-14T12:58:23.946Z,20.55
2023-02-14T13:01:04.687Z,20.08
2023-02-14T13:04:11.800Z,20.00
2023-02-14T13:06:49.614Z,20.25
2023-02-14T13:09:31.550Z,19.20
2023-02-14T13:12:19.752Z,18.85
2023-02-14T13:15:14.237Z,20.40
2023-02-14T13:17:48.447Z,19.65
2023-02-14T13:20:39.718Z,21.05
2023-02-14T13:23:24.135Z,20.98
2023-02-14T13:25:59.378Z,22.83
2023-02-14T13:28:31.254Z,20.55
2023-02-14T13:31:04.871Z,22.10
2023-02-14T13:33:38.052Z,22.75
2023-02-14T13:36:11.919Z,20.85
2023-02-14T13:38:50.453Z,21.20
2023-02-14T13:41:20.778Z,20.98
2023-02-14T13:44:05.432Z,22.77
2023-02-14T13:46:57.438Z,20.40
2023-02-14T13:49:32.038Z,20.30
2023-02-14T13:52:03.868Z,21.73
2023-02-14T13:54:37.332Z,21.95
2023-02-14T13:57:31.679Z,21.55
2023-02-14T14:00:41.300Z,21.88
2023-02-14T14:03:16.882Z,22.58
2023-02-14T14:06:00.850Z,22.70
2023-02-14T14:09:00.600Z,22.65
2023-02-14T14:11:54.317Z,22.48
2023-02-14T14:14:38.647Z,21.73
2023-02-14T14:17:27.824Z,21.45
2023-02-14T14:20:02.027Z,22.13
2023-02-14T14:22:31.715Z,21.38
2023-02-14T14:25:09.258Z,21.65
2023-02-14T14:27:42.914Z,22.05
2023-02-14T14:30:25.218Z,20.40
2023-02-14T14:32:54.800Z,20.40
2023-02-14T14:35:30.618Z,22.27
2023-02-14T14:38:05.378Z,22.25
2023-02-14T14:40:38.825Z,22.35
2023-02-14T14:43:16.943Z,23.30
2023-02-14T14:45:53.363Z,20.88
2023-02-14T14:48:28.604Z,23.13
2023-02-14T14:51:15.930Z,22.98
2023-02-14T14:53:49.178Z,22.85
2023-02-14T14:56:25.273Z,22.40
2023-02-14T14:58:54.725Z,24.23
2023-02-14T15:01:35.817Z,21.35
2023-02-14T15:04:12.426Z,24.83
2023-02-14T15:06:50.487Z,22.98
2023-02-14T15:09:24.209Z,22.83
2023-02-14T15:12:12.980Z,22.90
2023-02-14T15:14:46.947Z,23.83
2023-02-14T15:17:22.553Z,25.63
2023-02-14T15:19:54.495Z,23.95
2023-02-14T15:22:33.817Z,24.97
2023-02-14T15:25:03.989Z,23.90
2023-02-14T15:27:34.828Z,25.88
2023-02-14T15:30:10.281Z,26.13
2023-02-14T15:32:39.380Z,25.58
2023-02-14T15:35:21.061Z,24.25
2023-02-14T15:37:53.642Z,23.95
2023-02-14T15:40:28.688Z,23.90
2023-02-14T15:43:00.671Z,24.77
2023-02-14T15:45:35.217Z,25.73
2023-02-14T15:48:16.072Z,25.30
2023-02-14T15:50:49.119Z,25.17
2023-02-14T15:56:06.194Z,24.25
2023-02-14T15:58:37.090Z,23.52
2023-02-14T16:01:06.858Z,25.77
2023-02-14T16:03:40.026Z,25.92
2023-02-14T16:06:10.849Z,27.13
2023-02-14T16:08:44.523Z,24.67
2023-02-14T16:11:17.421Z,25.95
2023-02-14T16:13:50.060Z,28.33
2023-02-14T16:16:18.748Z,28.42
2023-02-14T16:18:49.102Z,27.33
2023-02-14T16:21:20.352Z,28.95
2023-02-14T16:24:13.379Z,28.48
2023-02-14T16:26:45.362Z,27.35
2023-02-14T16:29:16.736Z,28.10
2023-02-14T16:32:14.247Z,28.20
2023-02-14T16:34:37.417Z,29.80
2023-02-14T16:37:10.322Z,28.50
2023-02-14T16:39:40.986Z,31.65
2023-02-14T16:42:17.374Z,30.30
2023-02-14T16:44:46.477Z,31.13
2023-02-14T16:47:16.312Z,30.02
2023-02-14T16:49:47.000Z,29.67
2023-02-14T16:52:25.561Z,29.77
2023-02-14T16:54:56.923Z,30.35
2023-02-14T16:57:34.224Z,29.98
2023-02-14T17:00:02.607Z,32.13
2023-02-14T17:02:33.883Z,34.70
2023-02-14T17:05:03.298Z,32.38
2023-02-14T17:07:35.634Z,32.25
2023-02-14T17:10:16.201Z,34.03
2023-02-14T17:12:49.159Z,31.55
2023-02-14T17:17:52.036Z,33.10
2023-02-14T17:20:25.597Z,33.63
2023-02-14T17:22:55.591Z,32.38
2023-02-14T17:25:26.241Z,33.63
2023-02-14T17:27:56.429Z,33.80
2023-02-14T17:30:27.092Z,35.15
2023-02-14T17:32:55.780Z,37.45
2023-02-14T17:35:26.282Z,37.20
2023-02-14T17:37:55.358Z,34.78
2023-02-14T17:40:24.460Z,37.08
2023-02-14T17:42:53.264Z,38.63
2023-02-14T17:45:23.729Z,41.25
2023-02-14T17:47:52.099Z,43.28
2023-02-14T17:50:20.733Z,44.50
2023-02-14T17:52:49.568Z,42.17
2023-02-14T17:55:19.166Z,42.13
2023-02-14T17:57:52.343Z,43.20
2023-02-14T18:00:23.816Z,42.80
2023-02-14T18:02:52.289Z,42.25
2023-02-14T18:05:20.786Z,43.58
2023-02-14T18:07:49.287Z,45.60
2023-02-14T18:10:18.079Z,42.67
2023-02-14T18:12:46.666Z,41.35
2023-02-14T18:15:15.244Z,44.45
2023-02-14T18:17:46.830Z,45.70
2023-02-14T18:20:15.730Z,46.30
2023-02-14T18:22:44.642Z,46.72
2023-02-14T18:25:13.254Z,47.03
2023-02-14T18:27:42.062Z,47.67
2023-02-14T18:30:12.195Z,49.17
2023-02-14T18:32:40.845Z,48.33
2023-02-14T18:35:10.772Z,47.58
2023-02-14T18:37:39.285Z,48.47
2023-02-14T18:40:11.033Z,48.35
2023-02-14T18:42:39.906Z,49.60
2023-02-14T18:45:09.513Z,50.13
2023-02-14T18:47:38.526Z,51.40
2023-02-14T18:50:13.051Z,52.78
2023-02-14T18:52:41.698Z,51.80
2023-02-14T18:55:10.397Z,54.08
2023-02-14T18:57:42.257Z,48.67
2023-02-14T19:00:14.196Z,49.40
2023-02-14T19:02:43.009Z,50.20
2023-02-14T19:05:12.598Z,47.70
2023-02-14T19:07:41.078Z,50.10
2023-02-14T19:10:10.886Z,49.42
2023-02-14T19:12:39.921Z,48.97
2023-02-14T19:15:09.563Z,51.13
2023-02-14T19:17:39.229Z,50.88
2023-02-14T19:20:09.570Z,48.78
2023-02-14T19:22:43.085Z,53.83
2023-02-14T19:25:11.696Z,51.28
2023-02-14T19:27:40.304Z,51.92
2023-02-14T19:30:10.831Z,49.88
2023-02-14T19:32:39.051Z,51.28
2023-02-14T19:35:08.504Z,48.83
2023-02-14T19:37:38.192Z,50.20
2023-02-14T19:40:11.629Z,49.75
2023-02-14T19:42:40.987Z,48.08
2023-02-14T19:45:10.367Z,45.08
2023-02-14T19:47:47.004Z,46.38
2023-02-14T19:50:16.535Z,46.13
2023-02-14T19:52:45.360Z,44.78
2023-02-14T19:55:23.441Z,46.58
2023-02-14T19:57:52.124Z,47.58
2023-02-14T20:00:22.252Z,46.05
2023-02-14T20:02:50.844Z,44.47
2023-02-14T20:05:21.292Z,45.25
2023-02-14T20:07:52.173Z,46.00
2023-02-14T20:10:22.367Z,44.65
2023-02-14T20:12:52.485Z,44.08
2023-02-14T20:15:20.974Z,48.22
2023-02-14T20:17:49.448Z,44.67
2023-02-14T20:20:18.271Z,43.63
2023-02-14T20:22:47.092Z,46.63
2023-02-14T20:25:15.623Z,45.25
2023-02-14T20:27:45.309Z,44.47
2023-02-14T20:30:14.501Z,42.13
2023-02-14T20:32:43.145Z,41.90
2023-02-14T20:35:11.652Z,39.10
2023-02-14T20:37:40.201Z,37.85
2023-02-14T20:40:10.926Z,40.90
2023-02-14T20:42:40.164Z,40.83
2023-02-14T20:45:10.718Z,43.17
2023-02-14T20:47:39.644Z,41.10
2023-02-14T20:50:09.130Z,40.15
2023-02-14T20:52:39.796Z,41.88
2023-02-14T20:55:08.660Z,40.03
2023-02-14T20:57:37.105Z,42.75
2023-02-14T21:00:06.113Z,44.55
2023-02-14T21:02:39.344Z,43.42
2023-02-14T21:05:09.475Z,41.92
2023-02-14T21:07:38.152Z,42.90
2023-02-14T21:10:08.474Z,43.58
2023-02-14T21:12:38.709Z,46.08
2023-02-14T21:15:08.198Z,43.78
2023-02-14T21:17:37.719Z,45.92
2023-02-14T21:20:07.326Z,43.30
2023-02-14T21:22:35.969Z,46.03
2023-02-14T21:25:07.792Z,44.47
2023-02-14T21:27:36.317Z,46.15
2023-02-14T21:30:05.028Z,45.50
2023-02-14T21:32:33.815Z,42.75
2023-02-14T21:35:03.199Z,43.65
2023-02-14T21:37:32.207Z,45.80
2023-02-14T21:40:00.893Z,45.80
2023-02-14T21:42:29.644Z,42.15
2023-02-14T21:45:15.752Z,41.10
2023-02-14T21:48:04.322Z,41.33
2023-02-14T21:50:33.026Z,43.53
2023-02-14T21:53:01.667Z,45.65
2023-02-14T21:55:30.311Z,43.97
2023-02-14T21:58:00.356Z,47.63
2023-02-14T22:00:28.956Z,48.25
2023-02-14T22:02:57.893Z,47.05
2023-02-14T22:05:26.937Z,46.55
2023-02-14T22:07:56.945Z,46.47
2023-02-14T22:10:25.400Z,46.50
2023-02-14T22:12:54.020Z,47.00
2023-02-14T22:15:23.100Z,43.70
2023-02-14T22:17:51.574Z,44.50
2023-02-14T22:20:20.471Z,44.35
2023-02-14T22:22:49.053Z,43.05
2023-02-14T22:25:19.625Z,43.30
2023-02-14T22:27:48.420Z,40.63
2023-02-14T22:30:17.337Z,43.17
2023-02-14T22:32:45.896Z,42.60
2023-02-14T22:35:14.825Z,43.35
2023-02-14T22:37:43.236Z,41.40
2023-02-14T22:40:12.004Z,40.90
2023-02-14T22:42:41.927Z,38.72
2023-02-14T22:45:10.984Z,38.05
2023-02-14T22:47:41.062Z,39.97
2023-02-14T22:50:10.345Z,39.13
2023-02-14T22:52:39.137Z,37.08
2023-02-14T22:55:08.090Z,37.85
2023-02-14T22:57:36.849Z,38.33
2023-02-14T23:00:11.962Z,37.45
2023-02-14T23:02:40.674Z,40.88
2023-02-14T23:05:09.618Z,38.80
2023-02-14T23:07:38.314Z,38.88
2023-02-14T23:10:08.200Z,36.83
2023-02-14T23:12:54.584Z,37.05
2023-02-14T23:15:56.599Z,35.65
2023-02-14T23:18:42.659Z,38.85
2023-02-14T23:21:32.971Z,33.28
2023-02-14T23:24:01.225Z,37.42
2023-02-14T23:26:29.691Z,35.60
2023-02-14T23:28:58.590Z,38.55
2023-02-14T23:31:28.542Z,34.75
2023-02-14T23:33:57.351Z,39.08
2023-02-14T23:36:25.918Z,37.10
2023-02-14T23:38:54.442Z,34.30
2023-02-14T23:41:43.726Z,35.42
2023-02-14T23:44:12.375Z,33.60
2023-02-14T23:46:41.746Z,35.55
2023-02-14T23:49:10.458Z,34.17
2023-02-14T23:51:40.521Z,36.25
2023-02-14T23:54:09.639Z,36.67
2023-02-14T23:56:38.158Z,37.55
2023-02-14T23:59:07.018Z,36.42
